Zadar, Croatia

1:33 AM CET on February 13, 2016 (GMT +0100)
Zemunik | | Change Station
CLOSE
Current Station
Airport
Location: Zadar,
Elevation: 269 ft
Nearby Weather Stations

Elev 269 ft 44.10 °N, 15.36 °E | Updated 3 minutes ago

Light Rain
Light Rain
52 °F
Feels Like 52 °F
N
15
Wind Variable Wind from SE

Today
High -- | Low -- °F
--% Chance of Precip.
Yesterday
High -- | Low -- °F
Precip. -- in
Pressure 29.42 in
Visibility 6.2 miles
Clouds Few 2000 ft
Scattered Clouds 3000 ft
Mostly Cloudy 5000 ft
Dew Point 50 °F
Humidity 94%
Rainfall 0.00 in
Snow Depth Not available.
7:01 AM 5:24 PM
Waxing Crescent, 25% visible
METAR LDZD 130030Z 14013KT 9999 -RA FEW020 SCT030 BKN050 11/10 Q0996
Pressure 29.42 in
Visibility 6.2 miles
Clouds Few 2000 ft
Scattered Clouds 3000 ft
Mostly Cloudy 5000 ft
Dew Point 50 °F
Humidity 94%
Rainfall 0.00 in
Snow Depth Not available.
7:01 AM 5:24 PM
Waxing Crescent, 25% visible
METAR LDZD 130030Z 14013KT 9999 -RA FEW020 SCT030 BKN050 11/10 Q0996

10-Day Weather Forecast

Almanac

Astronomy

Feb. 13, 2016 Rise Set
Actual Time
Civil Twilight
Nautical Twilight
Astronomical Twilight
Moon
Length of Visible Light
Length of Day
Tomorrow will be .
, % of the Moon is Illuminated

Today's Extremes

Country Highs Country Lows

Community

WunderPhotos

Upload Photos

1,892,444 photos uploaded!

WunderBlog® & News

Nearby

Air Quality

  Air Quality AQ Index Pollutant
Not available.

Snow Depth

Station Depth Elevation

Earthquake Activity

City Distance Mag. Time & Date
Minimum magnitude displayed is 2.5.

Coastal Water Temperatures

Place Temperature

Stations

Nearby Weather Stations

Station Location Temp. Windchill Dew Point Humidity Wind Precip. Elev Updated Type